aviador You're here:

RKJK Decoded Metar

KUNSAN in KOREA
Report Time2017-11-24 01:56:00
UTC Time2017-11-24 02:09:51
Flight Rules vfr VFR
Wind310° at 16 Gusting to 21 kt
W.Decomp.*RWY 36: 11.7 kt HW 10.9 kt LCW
W.Rank310° ranks 9
Current wind is above 310° avg. (9.1)
Visibility9999 m
Phenomena:N/A
Clouds:N/A
Expected CloudBase > 2,000 ft AGL from Temp-Dew spread
CeilingNone
Temp08°C (ISA -7)
Dew Point03°C (71% RH)
AAT0.7°C
QNH1024 hPa
Density Alt-1,073 ft
Elevation30 ft
Report Wrong Elevation
Raw Report
METAR RKJK 240156Z AUTO 31016G21KT 10SM CLR 08/03 A3024 RMK AO2 PK
WND 28030/11 SLP245 T00760029 $=

Extra information for RKJK:More info

Metar Taf Metar & Taf Last 4 Metars F.Rules Stats Wind Profile Meteogram Temp Stats Airport Information Weather charts Add Link Nearby VenuesMetar ALERT Operation Metar Decoded Social comments